createdAt,value
2018-04-19T00:00:56.581Z,4.20
2018-04-19T00:01:56.582Z,3.60
2018-04-19T00:02:56.581Z,3.90
2018-04-19T00:03:56.579Z,4.00
2018-04-19T00:04:56.579Z,4.30
2018-04-19T00:05:56.580Z,4.40
2018-04-19T00:06:56.579Z,4.10
2018-04-19T00:07:56.580Z,4.70
2018-04-19T00:08:56.584Z,4.50
2018-04-19T00:09:56.578Z,3.70
2018-04-19T00:10:56.578Z,4.60
2018-04-19T00:11:56.616Z,4.20
2018-04-19T00:12:56.581Z,4.40
2018-04-19T00:13:56.579Z,3.80
2018-04-19T00:14:56.577Z,4.10
2018-04-19T00:15:56.576Z,4.00
2018-04-19T00:16:56.583Z,3.70
2018-04-19T00:17:56.577Z,4.10
2018-04-19T00:18:56.574Z,4.40
2018-04-19T00:19:56.575Z,3.70
2018-04-19T00:20:56.573Z,3.80
2018-04-19T00:21:56.577Z,4.00
2018-04-19T00:22:56.573Z,3.50
2018-04-19T00:23:56.576Z,4.30
2018-04-19T00:24:56.573Z,4.20
2018-04-19T00:25:56.572Z,4.10
2018-04-19T00:26:56.571Z,4.50
2018-04-19T00:27:56.571Z,3.80
2018-04-19T00:28:56.571Z,3.90
2018-04-19T00:29:56.570Z,4.00
2018-04-19T00:30:56.576Z,3.80
2018-04-19T00:31:56.570Z,3.20
2018-04-19T00:32:56.569Z,3.20
2018-04-19T00:33:56.569Z,3.30
2018-04-19T00:34:56.569Z,3.80
2018-04-19T00:35:56.568Z,3.50
2018-04-19T00:36:56.568Z,3.80
2018-04-19T00:37:56.571Z,3.00
2018-04-19T00:38:56.568Z,3.50
2018-04-19T00:39:56.566Z,3.60
2018-04-19T00:40:56.566Z,3.40
2018-04-19T00:41:56.566Z,3.60
2018-04-19T00:42:56.565Z,3.30
2018-04-19T00:43:56.564Z,3.60
2018-04-19T00:44:56.564Z,3.60
2018-04-19T00:45:56.566Z,3.80
2018-04-19T00:46:56.563Z,3.10
2018-04-19T00:47:56.562Z,3.40
2018-04-19T00:48:56.562Z,3.70
2018-04-19T00:49:56.563Z,3.00
2018-04-19T00:50:56.560Z,3.60
2018-04-19T00:51:56.560Z,3.80
2018-04-19T00:52:56.560Z,3.50
2018-04-19T00:53:56.559Z,3.60
2018-04-19T00:54:56.559Z,3.70
2018-04-19T00:55:56.558Z,3.30
2018-04-19T00:56:56.564Z,3.40
2018-04-19T00:57:56.557Z,3.30
2018-04-19T00:58:56.557Z,3.00
2018-04-19T00:59:56.554Z,3.00
2018-04-19T01:00:56.555Z,3.20
2018-04-19T01:01:56.556Z,3.90
2018-04-19T01:02:56.557Z,3.40
2018-04-19T01:03:56.553Z,3.90
2018-04-19T01:04:56.553Z,3.40
2018-04-19T01:05:56.551Z,3.30
2018-04-19T01:06:56.550Z,3.80
2018-04-19T01:07:56.550Z,3.70
2018-04-19T01:08:56.549Z,3.60
2018-04-19T01:09:56.548Z,3.40
2018-04-19T01:10:56.547Z,3.70
2018-04-19T01:11:56.547Z,3.80
2018-04-19T01:12:56.545Z,3.10
2018-04-19T01:13:56.546Z,3.50
2018-04-19T01:14:56.544Z,3.70
2018-04-19T01:15:56.543Z,3.50
2018-04-19T01:16:56.542Z,3.20
2018-04-19T01:17:56.544Z,4.30
2018-04-19T01:18:56.540Z,3.10
2018-04-19T01:19:56.542Z,3.40
2018-04-19T01:20:56.540Z,4.00
2018-04-19T01:21:56.539Z,3.70
2018-04-19T01:22:56.541Z,3.90
2018-04-19T01:23:56.536Z,4.10
2018-04-19T01:24:56.536Z,3.50
2018-04-19T01:25:56.536Z,3.80
2018-04-19T01:26:56.534Z,3.80
2018-04-19T01:27:56.533Z,3.90
2018-04-19T01:28:56.532Z,3.40
2018-04-19T01:29:56.533Z,4.10
2018-04-19T01:30:56.530Z,3.50
2018-04-19T01:31:56.529Z,3.90
2018-04-19T01:32:56.529Z,3.60
2018-04-19T01:33:56.528Z,3.40
2018-04-19T01:34:56.526Z,3.80
2018-04-19T01:35:56.525Z,3.00
2018-04-19T01:36:56.525Z,3.60
2018-04-19T01:37:56.524Z,3.40
2018-04-19T01:38:56.522Z,4.10
2018-04-19T01:39:56.523Z,3.30
2018-04-19T01:40:56.521Z,3.90
2018-04-19T01:41:56.520Z,4.10
2018-04-19T01:42:56.518Z,4.30
2018-04-19T01:43:56.518Z,3.40
2018-04-19T01:44:56.517Z,3.60
2018-04-19T01:45:56.516Z,3.40
2018-04-19T01:46:56.515Z,3.30
2018-04-19T01:47:56.515Z,3.40
2018-04-19T01:48:56.513Z,3.50
2018-04-19T01:49:56.515Z,2.90
2018-04-19T01:50:56.510Z,3.20
2018-04-19T01:51:56.511Z,3.50
2018-04-19T01:52:56.510Z,4.10
2018-04-19T01:53:56.509Z,3.80
2018-04-19T01:54:56.508Z,3.50
2018-04-19T01:55:56.509Z,3.20
2018-04-19T01:56:56.506Z,3.30
2018-04-19T01:57:56.506Z,3.40
2018-04-19T01:58:56.503Z,3.70
2018-04-19T01:59:56.503Z,3.50
2018-04-19T02:00:56.502Z,3.60
2018-04-19T02:01:56.504Z,3.50
2018-04-19T02:02:56.499Z,3.20
2018-04-19T02:03:56.498Z,3.40
2018-04-19T02:04:56.499Z,3.30
2018-04-19T02:05:56.497Z,3.50
2018-04-19T02:06:56.495Z,3.80
2018-04-19T02:07:56.496Z,3.70
2018-04-19T02:08:56.497Z,3.50
2018-04-19T02:09:56.493Z,3.00
2018-04-19T02:10:56.491Z,3.30
2018-04-19T02:11:56.491Z,4.00
2018-04-19T02:12:56.490Z,3.60
2018-04-19T02:13:56.489Z,3.30
2018-04-19T02:14:56.490Z,3.20
2018-04-19T02:15:56.487Z,3.20
2018-04-19T02:16:56.487Z,3.90
2018-04-19T02:17:56.485Z,3.60
2018-04-19T02:18:56.489Z,3.50
2018-04-19T02:19:56.487Z,3.20
2018-04-19T02:20:56.482Z,3.40
2018-04-19T02:21:56.482Z,3.20
2018-04-19T02:22:56.480Z,3.20
2018-04-19T02:23:56.479Z,3.20
2018-04-19T02:24:56.478Z,3.20
2018-04-19T02:25:56.478Z,3.40
2018-04-19T02:26:56.475Z,3.00
2018-04-19T02:27:56.476Z,4.10
2018-04-19T02:28:56.474Z,3.60
2018-04-19T02:30:29.684Z,2.80
2018-04-19T02:30:56.487Z,3.80
2018-04-19T02:31:56.472Z,3.60
2018-04-19T02:32:56.470Z,3.50
2018-04-19T02:33:56.469Z,3.30
2018-04-19T02:34:56.468Z,3.30
2018-04-19T02:35:56.468Z,3.40
2018-04-19T02:36:56.466Z,3.20
2018-04-19T02:37:56.466Z,3.10
2018-04-19T02:38:56.464Z,2.90
2018-04-19T02:39:56.464Z,3.60
2018-04-19T02:40:56.463Z,3.70
2018-04-19T02:41:56.464Z,3.70
2018-04-19T02:42:56.459Z,3.30
2018-04-19T02:43:56.459Z,3.30
2018-04-19T02:44:56.459Z,3.50
2018-04-19T02:45:56.458Z,3.70
2018-04-19T02:46:56.455Z,3.40
2018-04-19T02:47:56.454Z,3.40
2018-04-19T02:48:56.453Z,3.10
2018-04-19T02:49:56.452Z,3.60
2018-04-19T02:50:56.452Z,3.70
2018-04-19T02:51:56.452Z,4.20
2018-04-19T02:52:56.449Z,3.20
2018-04-19T02:53:56.450Z,3.20
2018-04-19T02:54:56.448Z,3.70
2018-04-19T02:55:56.446Z,3.30
2018-04-19T02:56:56.444Z,3.40
2018-04-19T02:57:56.445Z,3.20
2018-04-19T02:58:56.443Z,3.20
2018-04-19T02:59:56.441Z,3.10
2018-04-19T03:00:56.441Z,3.30
2018-04-19T03:01:56.440Z,2.90
2018-04-19T03:02:56.439Z,3.10
2018-04-19T03:03:56.439Z,2.90
2018-04-19T03:04:56.436Z,3.20
2018-04-19T03:05:56.435Z,3.50
2018-04-19T03:06:56.436Z,3.70
2018-04-19T03:07:56.432Z,3.90
2018-04-19T03:08:56.432Z,3.20
2018-04-19T03:09:56.437Z,4.00
2018-04-19T03:10:56.428Z,3.50
2018-04-19T03:11:56.428Z,3.60
2018-04-19T03:12:56.426Z,4.00
2018-04-19T03:13:56.426Z,3.70
2018-04-19T03:14:56.425Z,3.80
2018-04-19T03:15:56.422Z,3.60
2018-04-19T03:16:56.422Z,3.10
2018-04-19T03:17:56.421Z,3.00
2018-04-19T03:18:56.419Z,3.60
2018-04-19T03:19:56.418Z,3.50
2018-04-19T03:20:56.418Z,3.70
2018-04-19T03:21:56.418Z,3.40
2018-04-19T03:22:56.415Z,3.60
2018-04-19T03:23:56.414Z,4.10
2018-04-19T03:24:56.425Z,3.40
2018-04-19T03:25:56.413Z,3.30
2018-04-19T03:26:56.411Z,4.30
2018-04-19T03:27:56.408Z,3.90
2018-04-19T03:28:56.412Z,4.30
2018-04-19T03:29:56.406Z,4.00
2018-04-19T03:30:56.405Z,3.40
2018-04-19T03:31:56.403Z,4.00
2018-04-19T03:32:56.403Z,3.80
2018-04-19T03:33:56.403Z,3.40
2018-04-19T03:34:56.399Z,3.90
2018-04-19T03:35:56.399Z,4.30
2018-04-19T03:36:56.397Z,4.40
2018-04-19T03:37:56.397Z,4.10
2018-04-19T03:38:56.394Z,3.80
2018-04-19T03:39:56.417Z,4.00
2018-04-19T03:40:56.391Z,4.20
2018-04-19T03:41:56.391Z,3.60
2018-04-19T03:42:56.389Z,3.60
2018-04-19T03:43:56.390Z,3.80
2018-04-19T03:44:56.386Z,4.00
2018-04-19T03:45:56.386Z,4.50
2018-04-19T03:46:56.385Z,4.10
2018-04-19T03:47:56.423Z,4.00
2018-04-19T03:48:56.386Z,4.00
2018-04-19T03:49:56.381Z,4.50
2018-04-19T03:50:56.378Z,4.60
2018-04-19T03:51:56.377Z,4.50
2018-04-19T03:52:56.397Z,4.80
2018-04-19T03:53:56.426Z,5.30
2018-04-19T03:54:56.372Z,4.60
2018-04-19T03:55:56.371Z,5.20
2018-04-19T03:56:56.372Z,4.60
2018-04-19T03:57:56.369Z,5.00
2018-04-19T03:58:56.597Z,4.60
2018-04-19T03:59:56.367Z,4.30
2018-04-19T04:00:56.365Z,5.10
2018-04-19T04:01:56.364Z,4.80
2018-04-19T04:02:56.361Z,4.80
2018-04-19T04:03:56.368Z,6.20
2018-04-19T04:04:56.359Z,5.10
2018-04-19T04:05:56.359Z,5.00
2018-04-19T04:06:56.356Z,5.40
2018-04-19T04:07:56.355Z,3.90
2018-04-19T04:08:56.356Z,4.00
2018-04-19T04:09:56.352Z,4.70
2018-04-19T04:10:56.351Z,3.60
2018-04-19T04:11:56.349Z,4.30
2018-04-19T04:12:56.348Z,5.20
2018-04-19T04:13:56.347Z,4.30
2018-04-19T04:14:56.347Z,4.80
2018-04-19T04:15:56.343Z,4.60
2018-04-19T04:16:56.342Z,5.00
2018-04-19T04:17:56.340Z,3.90
2018-04-19T04:18:56.337Z,4.70
2018-04-19T04:19:56.336Z,4.40
2018-04-19T04:20:56.338Z,4.70
2018-04-19T04:21:56.342Z,5.00
2018-04-19T04:22:56.331Z,4.50
2018-04-19T04:23:56.330Z,4.70
2018-04-19T04:24:56.330Z,4.90
2018-04-19T04:25:56.328Z,4.70
2018-04-19T04:26:56.325Z,5.00
2018-04-19T04:27:56.323Z,5.60
2018-04-19T04:28:56.322Z,5.00
2018-04-19T04:29:56.321Z,4.90
2018-04-19T04:30:56.319Z,5.20
2018-04-19T04:31:56.317Z,5.00
2018-04-19T04:32:56.316Z,5.40
2018-04-19T04:33:56.315Z,5.10
2018-04-19T04:34:56.313Z,4.80
2018-04-19T04:35:56.319Z,5.00
2018-04-19T04:36:56.317Z,4.50
2018-04-19T04:37:56.309Z,5.00
2018-04-19T04:38:56.311Z,4.90
2018-04-19T04:39:56.306Z,4.80
2018-04-19T04:40:56.304Z,4.90
2018-04-19T04:41:56.305Z,4.30
2018-04-19T04:42:56.309Z,4.50
2018-04-19T04:43:56.301Z,4.80
2018-04-19T04:44:56.299Z,4.70
2018-04-19T04:45:56.295Z,5.30
2018-04-19T04:46:56.294Z,4.60
2018-04-19T04:47:56.294Z,4.00
2018-04-19T04:48:56.292Z,4.10
2018-04-19T04:49:56.291Z,4.50
2018-04-19T04:50:56.292Z,4.00
2018-04-19T04:51:56.289Z,4.70
2018-04-19T04:52:56.285Z,4.70
2018-04-19T04:53:56.290Z,4.40
2018-04-19T04:54:56.283Z,5.00
2018-04-19T04:55:56.280Z,3.90
2018-04-19T04:56:56.279Z,4.40
2018-04-19T04:57:56.277Z,4.40
2018-04-19T04:58:56.276Z,5.30
2018-04-19T04:59:56.275Z,4.90
2018-04-19T05:00:56.274Z,5.30
2018-04-19T05:01:56.273Z,4.90
2018-04-19T05:02:56.271Z,4.50
2018-04-19T05:03:56.268Z,4.90
2018-04-19T05:04:56.268Z,5.60
2018-04-19T05:05:56.273Z,4.50
2018-04-19T05:06:56.265Z,4.80
2018-04-19T05:07:56.263Z,4.90
2018-04-19T05:08:56.263Z,5.40
2018-04-19T05:09:56.260Z,5.20
2018-04-19T05:10:56.258Z,5.00
2018-04-19T05:11:56.260Z,4.60
2018-04-19T05:12:56.257Z,4.70
2018-04-19T05:13:56.255Z,4.80
2018-04-19T05:14:56.252Z,5.20
2018-04-19T05:15:56.253Z,4.10
2018-04-19T05:16:56.252Z,4.30
2018-04-19T05:17:56.254Z,4.10
2018-04-19T05:18:56.248Z,4.70
2018-04-19T05:19:56.248Z,3.90
2018-04-19T05:20:56.246Z,4.70
2018-04-19T05:21:56.244Z,4.30
2018-04-19T05:22:56.243Z,3.80
2018-04-19T05:23:56.242Z,4.00
2018-04-19T05:24:56.240Z,4.10
2018-04-19T05:25:56.240Z,3.80
2018-04-19T05:26:56.238Z,3.50
2018-04-19T05:27:56.235Z,3.80
2018-04-19T05:28:56.236Z,4.10
2018-04-19T05:29:56.234Z,4.10
2018-04-19T05:30:56.233Z,3.70
2018-04-19T05:31:56.232Z,4.30
2018-04-19T05:32:56.231Z,3.10
2018-04-19T05:33:56.232Z,3.80
2018-04-19T05:34:56.226Z,3.80
2018-04-19T05:35:56.227Z,3.40
2018-04-19T05:36:56.226Z,3.50
2018-04-19T05:37:56.224Z,3.60
2018-04-19T05:38:56.223Z,4.70
2018-04-19T05:39:56.223Z,4.60
2018-04-19T05:40:56.222Z,4.20
2018-04-19T05:41:56.221Z,4.40
2018-04-19T05:42:56.219Z,4.50
2018-04-19T05:43:56.220Z,4.50
2018-04-19T05:44:56.217Z,4.00
2018-04-19T05:45:56.217Z,4.40
2018-04-19T05:46:56.216Z,4.40
2018-04-19T05:47:56.215Z,4.50
2018-04-19T05:48:56.214Z,4.20
2018-04-19T05:49:56.215Z,4.70
2018-04-19T05:50:56.213Z,4.40
2018-04-19T05:51:56.210Z,3.50
2018-04-19T05:52:56.212Z,4.20
2018-04-19T05:53:56.210Z,4.60
2018-04-19T05:54:56.209Z,4.00
2018-04-19T05:55:56.208Z,3.70
2018-04-19T05:56:56.211Z,3.80
2018-04-19T05:57:56.209Z,4.70
2018-04-19T05:58:56.208Z,3.70
2018-04-19T05:59:56.206Z,3.80
2018-04-19T06:00:56.206Z,3.50
2018-04-19T06:01:56.207Z,3.70
2018-04-19T06:02:56.205Z,3.40
2018-04-19T06:03:56.205Z,3.70
2018-04-19T06:04:56.206Z,3.00
2018-04-19T06:05:56.256Z,3.60
2018-04-19T06:06:56.249Z,3.60
2018-04-19T06:07:56.206Z,3.70
2018-04-19T06:08:56.205Z,3.00
2018-04-19T06:09:56.205Z,3.50
2018-04-19T06:10:56.207Z,3.80
2018-04-19T06:11:56.205Z,3.40
2018-04-19T06:12:56.205Z,4.10
2018-04-19T06:13:56.205Z,3.20
2018-04-19T06:14:56.205Z,2.90
2018-04-19T06:15:56.206Z,3.10
2018-04-19T06:16:56.294Z,3.20
2018-04-19T06:17:56.206Z,3.10
2018-04-19T06:18:56.206Z,3.60
2018-04-19T06:19:56.205Z,3.30
2018-04-19T06:20:56.208Z,3.50
2018-04-19T06:21:56.207Z,3.30
2018-04-19T06:22:56.207Z,3.40
2018-04-19T06:23:56.209Z,3.80
2018-04-19T06:24:56.246Z,3.90
2018-04-19T06:25:56.210Z,4.20
2018-04-19T06:26:56.209Z,4.60
2018-04-19T06:27:56.209Z,5.30
2018-04-19T06:28:56.211Z,4.80
2018-04-19T06:29:56.212Z,4.20
2018-04-19T06:30:56.212Z,4.50
2018-04-19T06:31:56.213Z,4.50
2018-04-19T06:32:56.213Z,5.00
2018-04-19T06:33:56.215Z,5.40
2018-04-19T06:34:56.220Z,4.90
2018-04-19T06:35:56.249Z,4.90
2018-04-19T06:36:56.216Z,4.80
2018-04-19T06:37:56.217Z,4.80
2018-04-19T06:38:56.219Z,4.60
2018-04-19T06:39:56.219Z,4.90
2018-04-19T06:40:56.221Z,4.80
2018-04-19T06:41:56.228Z,5.20
2018-04-19T06:42:56.227Z,4.70
2018-04-19T06:43:56.231Z,4.70
2018-04-19T06:44:56.236Z,4.70
2018-04-19T06:45:56.242Z,5.10
2018-04-19T06:46:56.248Z,4.60
2018-04-19T06:47:56.257Z,4.50
2018-04-19T06:48:56.265Z,4.10
2018-04-19T06:49:56.272Z,4.70
2018-04-19T06:50:56.284Z,3.90
2018-04-19T06:51:56.290Z,3.50
2018-04-19T06:52:56.300Z,4.20
2018-04-19T06:53:56.312Z,4.50
2018-04-19T06:54:57.043Z,3.10
2018-04-19T06:55:56.332Z,3.10
2018-04-19T06:56:56.345Z,2.90
2018-04-19T06:57:56.357Z,3.30
2018-04-19T06:58:56.368Z,2.90
2018-04-19T06:59:56.379Z,2.80
2018-04-19T07:00:56.446Z,3.00
2018-04-19T07:01:56.406Z,3.00
2018-04-19T07:02:56.416Z,3.20
2018-04-19T07:03:56.429Z,3.10
2018-04-19T07:04:56.443Z,2.90
2018-04-19T07:05:56.456Z,2.70
2018-04-19T07:06:56.467Z,3.00
2018-04-19T07:07:56.482Z,2.90
2018-04-19T07:08:56.493Z,2.70
2018-04-19T07:09:56.507Z,2.20
2018-04-19T07:10:56.518Z,2.70
2018-04-19T07:11:56.532Z,3.00
2018-04-19T07:12:56.545Z,3.80
2018-04-19T07:13:56.563Z,4.10
2018-04-19T07:14:56.569Z,2.60
2018-04-19T07:15:56.581Z,2.60
2018-04-19T07:16:56.592Z,2.60
2018-04-19T07:17:56.604Z,2.60
2018-04-19T07:18:56.614Z,2.30
2018-04-19T07:19:56.625Z,2.20
2018-04-19T07:20:56.637Z,2.20
2018-04-19T07:21:56.645Z,2.80
2018-04-19T07:22:56.653Z,2.60
2018-04-19T07:23:56.662Z,2.70
2018-04-19T07:24:56.673Z,2.30
2018-04-19T07:25:56.682Z,2.00
2018-04-19T07:26:56.691Z,2.60
2018-04-19T07:27:56.700Z,2.50
2018-04-19T07:28:56.764Z,2.60
2018-04-19T07:29:56.720Z,2.70
2018-04-19T07:30:56.727Z,3.20
2018-04-19T07:31:56.743Z,3.00
2018-04-19T07:32:56.746Z,2.50
2018-04-19T07:33:56.753Z,2.70
2018-04-19T07:34:56.761Z,2.20
2018-04-19T07:35:56.770Z,2.60
2018-04-19T07:36:56.778Z,2.50
2018-04-19T07:37:56.788Z,2.60
2018-04-19T07:38:56.795Z,2.60
2018-04-19T07:39:56.803Z,2.40
2018-04-19T07:40:56.811Z,3.70
2018-04-19T07:41:56.821Z,7.40
2018-04-19T07:42:56.827Z,3.70
2018-04-19T07:43:56.844Z,2.20
2018-04-19T07:44:56.844Z,2.60
2018-04-19T07:45:56.853Z,2.50
2018-04-19T07:46:56.860Z,2.50
2018-04-19T07:47:56.869Z,3.20
2018-04-19T07:48:56.877Z,2.90
2018-04-19T07:49:56.885Z,2.20
2018-04-19T07:50:56.895Z,2.40
2018-04-19T07:51:57.231Z,3.90
2018-04-19T07:52:56.911Z,3.80
2018-04-19T07:53:56.919Z,4.30
2018-04-19T07:54:56.927Z,2.80
2018-04-19T07:55:56.935Z,5.50
2018-04-19T07:56:56.943Z,2.50
2018-04-19T07:57:56.953Z,2.50
2018-04-19T07:58:56.959Z,2.30
2018-04-19T07:59:56.968Z,2.00
2018-04-19T08:00:56.977Z,2.70
2018-04-19T08:01:56.986Z,2.90
2018-04-19T08:02:56.995Z,2.60
2018-04-19T08:03:57.004Z,2.50
2018-04-19T08:04:57.014Z,2.90
2018-04-19T08:05:57.056Z,3.10
2018-04-19T08:06:57.035Z,2.80
2018-04-19T08:07:57.045Z,2.30
2018-04-19T08:08:57.056Z,2.70
2018-04-19T08:09:57.068Z,2.80
2018-04-19T08:10:57.078Z,2.80
2018-04-19T08:11:57.098Z,2.70
2018-04-19T08:12:57.105Z,2.60
2018-04-19T08:13:57.209Z,2.60
2018-04-19T08:14:57.356Z,2.70
2018-04-19T08:15:57.141Z,2.70
2018-04-19T08:16:57.158Z,2.60
2018-04-19T08:17:57.168Z,2.70
2018-04-19T08:18:57.228Z,2.70
2018-04-19T08:19:57.195Z,3.00
2018-04-19T08:20:57.209Z,2.60
2018-04-19T08:21:57.222Z,2.50
2018-04-19T08:22:57.238Z,2.80
2018-04-19T08:23:57.252Z,2.60
2018-04-19T08:24:57.263Z,2.80
2018-04-19T08:25:57.276Z,2.50
2018-04-19T08:26:57.289Z,2.20
2018-04-19T08:27:57.302Z,2.70
2018-04-19T08:28:57.316Z,2.50
2018-04-19T08:29:57.328Z,2.50
2018-04-19T08:30:57.341Z,3.10
2018-04-19T08:31:57.353Z,2.80
2018-04-19T08:32:57.367Z,2.70
2018-04-19T08:33:57.381Z,2.40
2018-04-19T08:34:57.394Z,2.80
2018-04-19T08:35:57.407Z,2.80
2018-04-19T08:36:57.418Z,2.70
2018-04-19T08:37:57.433Z,3.50
2018-04-19T08:38:57.446Z,3.30
2018-04-19T08:39:57.457Z,2.40
2018-04-19T08:40:57.469Z,2.70
2018-04-19T08:41:57.482Z,2.40
2018-04-19T08:42:57.493Z,2.50
2018-04-19T08:43:57.506Z,2.60
2018-04-19T08:44:57.518Z,2.60
2018-04-19T08:45:57.532Z,2.50
2018-04-19T08:46:57.542Z,2.80
2018-04-19T08:47:57.557Z,2.60
2018-04-19T08:48:57.567Z,2.50
2018-04-19T08:49:57.581Z,2.40
2018-04-19T08:50:57.592Z,3.20
2018-04-19T08:51:57.603Z,2.90
2018-04-19T08:52:57.616Z,2.50
2018-04-19T08:53:57.631Z,2.80
2018-04-19T08:54:57.639Z,2.90
2018-04-19T08:55:57.654Z,2.70
2018-04-19T08:56:57.688Z,2.60
2018-04-19T08:57:57.679Z,3.00
2018-04-19T08:58:57.691Z,3.10
2018-04-19T08:59:57.704Z,2.80
2018-04-19T09:00:57.718Z,2.90
2018-04-19T09:01:57.733Z,2.80
2018-04-19T09:02:57.746Z,2.70
2018-04-19T09:03:57.760Z,2.90
2018-04-19T09:04:57.776Z,2.50
2018-04-19T09:05:57.790Z,2.60
2018-04-19T09:06:57.806Z,3.10
2018-04-19T09:07:57.827Z,3.30
2018-04-19T09:08:57.837Z,2.70
2018-04-19T09:09:57.853Z,2.80
2018-04-19T09:10:57.871Z,2.90
2018-04-19T09:11:57.885Z,2.60
2018-04-19T09:12:57.903Z,2.70
2018-04-19T09:13:57.918Z,3.10
2018-04-19T09:14:57.934Z,2.40
2018-04-19T09:15:57.955Z,2.60
2018-04-19T09:16:57.968Z,2.60
2018-04-19T09:17:57.985Z,2.60
2018-04-19T09:18:58.001Z,2.60
2018-04-19T09:19:58.019Z,2.40
2018-04-19T09:20:58.152Z,2.70
2018-04-19T09:21:58.054Z,2.50
2018-04-19T09:22:58.133Z,2.50
2018-04-19T09:23:58.089Z,2.00
2018-04-19T09:24:58.107Z,2.40
2018-04-19T09:25:58.125Z,2.10
2018-04-19T09:26:58.141Z,5.90
2018-04-19T09:27:58.160Z,6.10
2018-04-19T09:28:58.178Z,2.10
2018-04-19T09:29:58.200Z,2.60
2018-04-19T09:30:58.217Z,2.40
2018-04-19T09:31:58.231Z,2.50
2018-04-19T09:32:58.249Z,1.90
2018-04-19T09:33:58.267Z,2.10
2018-04-19T09:34:58.313Z,1.80
2018-04-19T09:35:58.302Z,2.10
2018-04-19T09:36:58.319Z,4.10
2018-04-19T09:37:58.339Z,2.70
2018-04-19T09:38:58.355Z,2.30
2018-04-19T09:39:58.840Z,2.20
2018-04-19T09:40:58.429Z,2.20
2018-04-19T09:41:58.411Z,2.40
2018-04-19T09:42:58.427Z,2.90
2018-04-19T09:43:58.444Z,2.70
2018-04-19T09:44:58.463Z,2.90
2018-04-19T09:45:58.480Z,2.40
2018-04-19T09:46:58.498Z,3.00
2018-04-19T09:47:58.516Z,2.80
2018-04-19T09:48:58.535Z,2.40
2018-04-19T09:49:58.732Z,2.50
2018-04-19T09:50:58.585Z,2.80
2018-04-19T09:51:58.667Z,2.80
2018-04-19T09:52:58.604Z,3.10
2018-04-19T09:53:58.642Z,3.70
2018-04-19T09:54:58.643Z,2.90
2018-04-19T09:55:58.726Z,2.70
2018-04-19T09:56:58.763Z,2.60
2018-04-19T09:57:58.733Z,2.40
2018-04-19T09:58:58.710Z,2.50
2018-04-19T09:59:58.729Z,2.70
2018-04-19T10:00:58.746Z,2.60
2018-04-19T10:01:58.792Z,2.60
2018-04-19T10:02:58.874Z,2.50
2018-04-19T10:03:58.999Z,2.90
2018-04-19T10:04:58.822Z,2.60
2018-04-19T10:05:58.867Z,5.80
2018-04-19T10:06:59.099Z,4.70
2018-04-19T10:07:58.870Z,3.70
2018-04-19T10:08:58.890Z,2.50
2018-04-19T10:09:59.030Z,2.10
2018-04-19T10:10:58.971Z,2.60
2018-04-19T10:11:58.941Z,2.40
2018-04-19T10:12:58.968Z,2.00
2018-04-19T10:13:58.976Z,2.60
2018-04-19T10:14:58.993Z,2.30
2018-04-19T10:15:59.080Z,2.00
2018-04-19T10:16:59.031Z,2.00
2018-04-19T10:17:59.047Z,2.20
2018-04-19T10:18:59.065Z,2.40
2018-04-19T10:19:59.079Z,2.00
2018-04-19T10:20:59.104Z,2.30
2018-04-19T10:21:59.117Z,2.10
2018-04-19T10:22:59.134Z,2.60
2018-04-19T10:23:59.151Z,2.20
2018-04-19T10:24:59.172Z,1.90
2018-04-19T10:25:59.185Z,2.60
2018-04-19T10:26:59.201Z,2.40
2018-04-19T10:27:59.219Z,2.40
2018-04-19T10:28:59.235Z,1.80
2018-04-19T10:29:59.252Z,2.30
2018-04-19T10:30:59.270Z,2.30
2018-04-19T10:31:59.285Z,2.30
2018-04-19T10:32:59.302Z,2.40
2018-04-19T10:33:59.319Z,2.10
2018-04-19T10:34:59.334Z,2.10
2018-04-19T10:35:59.352Z,2.00
2018-04-19T10:36:59.366Z,2.10
2018-04-19T10:37:59.383Z,2.50
2018-04-19T10:38:59.399Z,2.30
2018-04-19T10:39:59.416Z,2.10
2018-04-19T10:40:59.432Z,2.70
2018-04-19T10:41:59.448Z,2.20
2018-04-19T10:42:59.467Z,1.80
2018-04-19T10:43:59.481Z,1.80
2018-04-19T10:44:59.501Z,1.90
2018-04-19T10:45:59.513Z,1.70
2018-04-19T10:46:59.532Z,2.30
2018-04-19T10:47:59.545Z,2.10
2018-04-19T10:48:59.563Z,2.10
2018-04-19T10:49:59.578Z,2.60
2018-04-19T10:50:59.595Z,2.10
2018-04-19T10:51:59.611Z,2.00
2018-04-19T10:52:59.629Z,2.80
2018-04-19T10:53:59.642Z,2.40
2018-04-19T10:54:59.659Z,2.20
2018-04-19T10:55:59.675Z,2.00
2018-04-19T10:56:59.692Z,1.90
2018-04-19T10:57:59.707Z,2.00
2018-04-19T10:58:59.723Z,2.20
2018-04-19T10:59:59.738Z,2.20
2018-04-19T11:00:59.770Z,2.10
2018-04-19T11:01:59.772Z,2.10
2018-04-19T11:02:59.787Z,2.10
2018-04-19T11:03:59.804Z,2.10
2018-04-19T11:04:59.821Z,2.40
2018-04-19T11:05:59.835Z,2.10
2018-04-19T11:06:59.891Z,2.10
2018-04-19T11:07:59.868Z,2.30
2018-04-19T11:08:59.925Z,3.10
2018-04-19T11:10:00.317Z,2.40
2018-04-19T11:10:59.921Z,1.70
2018-04-19T11:11:59.935Z,2.20
2018-04-19T11:12:59.948Z,2.20
2018-04-19T11:13:59.965Z,2.60
2018-04-19T11:14:59.984Z,2.20
2018-04-19T11:16:00.050Z,2.40
2018-04-19T11:17:00.012Z,2.40
2018-04-19T11:18:00.031Z,2.10
2018-04-19T11:19:00.045Z,2.70
2018-04-19T11:20:00.065Z,2.50
2018-04-19T11:21:00.074Z,2.60
2018-04-19T11:22:00.091Z,2.10
2018-04-19T11:23:00.108Z,2.70
2018-04-19T11:24:00.122Z,2.50
2018-04-19T11:25:00.140Z,2.90
2018-04-19T11:26:00.153Z,2.70
2018-04-19T11:27:00.168Z,2.60
2018-04-19T11:28:00.186Z,2.70
2018-04-19T11:29:00.203Z,2.40
2018-04-19T11:30:00.217Z,2.20
2018-04-19T11:31:00.429Z,2.30
2018-04-19T11:32:00.252Z,2.30
2018-04-19T11:33:00.296Z,2.00
2018-04-19T11:34:00.279Z,2.20
2018-04-19T11:35:00.299Z,2.00
2018-04-19T11:36:00.312Z,2.00
2018-04-19T11:37:00.328Z,2.40
2018-04-19T11:38:00.350Z,2.30
2018-04-19T11:39:00.360Z,2.60
2018-04-19T11:40:00.375Z,2.30
2018-04-19T11:41:00.390Z,2.80
2018-04-19T11:42:00.407Z,2.50
2018-04-19T11:43:00.423Z,2.20
2018-04-19T11:44:00.439Z,2.20
2018-04-19T11:45:00.455Z,2.30
2018-04-19T11:46:00.474Z,2.60
2018-04-19T11:47:00.488Z,2.40
2018-04-19T11:48:00.546Z,2.60
2018-04-19T11:49:00.650Z,2.10
2018-04-19T11:50:00.532Z,2.30
2018-04-19T11:51:00.560Z,2.50
2018-04-19T11:52:00.563Z,2.60
2018-04-19T11:53:00.596Z,2.30
2018-04-19T11:54:00.597Z,1.90
2018-04-19T11:55:00.618Z,2.30
2018-04-19T11:56:00.626Z,2.50
2018-04-19T11:57:00.643Z,2.20
2018-04-19T11:58:00.659Z,1.90
2018-04-19T11:59:00.674Z,2.10
2018-04-19T12:00:00.688Z,2.00
2018-04-19T12:01:00.742Z,2.30
2018-04-19T12:02:00.725Z,2.10
2018-04-19T12:03:00.735Z,2.30
2018-04-19T12:04:00.754Z,2.30
2018-04-19T12:05:00.769Z,2.60
2018-04-19T12:06:00.782Z,2.00
2018-04-19T12:07:00.796Z,2.10
2018-04-19T12:08:00.812Z,1.70
2018-04-19T12:09:00.827Z,2.60
2018-04-19T12:10:00.843Z,2.00
2018-04-19T12:11:00.859Z,2.00
2018-04-19T12:12:00.873Z,1.90
2018-04-19T12:13:00.888Z,2.80
2018-04-19T12:14:00.907Z,2.10
2018-04-19T12:15:00.919Z,2.10
2018-04-19T12:16:00.934Z,2.90
2018-04-19T12:17:00.949Z,4.30
2018-04-19T12:18:00.964Z,4.30
2018-04-19T12:19:01.000Z,2.80
2018-04-19T12:20:00.994Z,2.00
2018-04-19T12:21:01.009Z,2.60
2018-04-19T12:22:01.025Z,2.70
2018-04-19T12:23:01.039Z,2.20
2018-04-19T12:24:01.054Z,2.70
2018-04-19T12:25:01.070Z,2.20
2018-04-19T12:26:01.085Z,2.20
2018-04-19T12:27:01.100Z,2.30
2018-04-19T12:28:01.115Z,2.00
2018-04-19T12:29:01.129Z,2.10
2018-04-19T12:30:01.143Z,2.70
2018-04-19T12:31:01.158Z,2.00
2018-04-19T12:32:01.172Z,2.40
2018-04-19T12:33:01.187Z,2.10
2018-04-19T12:34:01.202Z,1.80
2018-04-19T12:35:01.220Z,1.90
2018-04-19T12:36:01.233Z,2.20
2018-04-19T12:37:01.251Z,2.20
2018-04-19T12:38:01.261Z,1.90
2018-04-19T12:39:01.277Z,2.30
2018-04-19T12:40:01.291Z,2.10
2018-04-19T12:41:01.308Z,2.10
2018-04-19T12:42:01.319Z,2.20
2018-04-19T12:43:01.576Z,2.10
2018-04-19T12:44:01.351Z,2.20
2018-04-19T12:45:01.363Z,2.40
2018-04-19T12:46:01.378Z,1.90
2018-04-19T12:47:01.392Z,2.10
2018-04-19T12:48:01.408Z,2.60
2018-04-19T12:49:01.421Z,1.90
2018-04-19T12:50:01.434Z,2.40
2018-04-19T12:51:01.449Z,1.90
2018-04-19T12:52:01.464Z,1.80
2018-04-19T12:53:01.478Z,2.10
2018-04-19T12:54:01.493Z,2.10
2018-04-19T12:55:01.507Z,1.80
2018-04-19T12:56:01.520Z,2.10
2018-04-19T12:57:01.535Z,2.20
2018-04-19T12:58:01.549Z,2.10
2018-04-19T12:59:01.562Z,2.20
2018-04-19T13:00:01.579Z,2.10
2018-04-19T13:01:01.590Z,2.30
2018-04-19T13:02:01.605Z,2.30
2018-04-19T13:03:01.616Z,2.00
2018-04-19T13:04:01.634Z,1.90
2018-04-19T13:05:01.646Z,2.10
2018-04-19T13:06:01.670Z,2.10
2018-04-19T13:07:01.672Z,2.60
2018-04-19T13:08:01.685Z,2.30
2018-04-19T13:09:01.701Z,2.10
2018-04-19T13:10:01.713Z,2.40
2018-04-19T13:11:01.728Z,2.00
2018-04-19T13:12:01.740Z,1.90
2018-04-19T13:13:01.754Z,2.20
2018-04-19T13:14:01.768Z,2.30
2018-04-19T13:15:01.779Z,2.40
2018-04-19T13:16:01.874Z,2.20
2018-04-19T13:17:01.806Z,2.00
2018-04-19T13:18:01.821Z,2.30
2018-04-19T13:19:01.834Z,2.40